createdAt,value
2019-03-31T00:00:31.443Z,2.13
2019-03-31T00:03:03.210Z,2.03
2019-03-31T00:05:30.363Z,0.50
2019-03-31T00:07:57.508Z,1.13
2019-03-31T00:10:24.443Z,2.37
2019-03-31T00:12:51.712Z,1.83
2019-03-31T00:15:18.322Z,2.57
2019-03-31T00:17:47.707Z,3.73
2019-03-31T00:20:14.535Z,1.80
2019-03-31T00:22:41.087Z,1.77
2019-03-31T00:25:12.255Z,2.90
2019-03-31T00:27:39.320Z,1.30
2019-03-31T00:30:08.501Z,2.13
2019-03-31T00:32:36.717Z,0.40
2019-03-31T00:35:03.728Z,0.60
2019-03-31T00:37:31.303Z,1.20
2019-03-31T00:39:57.969Z,1.30
2019-03-31T00:42:24.536Z,0.60
2019-03-31T00:44:51.115Z,1.40
2019-03-31T00:47:17.779Z,4.63
2019-03-31T00:49:44.261Z,0.67
2019-03-31T00:52:10.722Z,1.37
2019-03-31T00:54:37.205Z,0.93
2019-03-31T00:57:03.767Z,3.33
2019-03-31T00:59:30.256Z,1.73
2019-03-31T01:01:59.116Z,1.40
2019-03-31T01:04:27.212Z,0.50
2019-03-31T01:06:56.793Z,3.33
2019-03-31T01:09:26.987Z,0.20
2019-03-31T01:11:53.555Z,2.40
2019-03-31T01:14:20.307Z,1.27
2019-03-31T01:16:46.916Z,0.80
2019-03-31T01:19:13.886Z,1.47
2019-03-31T01:21:40.467Z,3.17
2019-03-31T01:24:08.232Z,2.07
2019-03-31T01:26:34.808Z,1.07
2019-03-31T01:29:01.373Z,0.40
2019-03-31T01:31:28.653Z,2.23
2019-03-31T01:33:55.461Z,1.70
2019-03-31T01:36:22.235Z,0.63
2019-03-31T01:38:48.801Z,1.13
2019-03-31T01:41:15.486Z,1.50
2019-03-31T01:43:42.040Z,2.00
2019-03-31T01:46:10.545Z,2.00
2019-03-31T01:48:37.207Z,1.97
2019-03-31T01:51:04.080Z,1.30
2019-03-31T01:53:30.639Z,1.00
2019-03-31T01:55:57.225Z,0.47
2019-03-31T01:58:23.791Z,2.90
2019-03-31T02:00:55.466Z,0.93
2019-03-31T02:03:22.124Z,0.88
2019-03-31T02:05:48.700Z,1.50
2019-03-31T02:08:15.377Z,0.50
2019-03-31T02:10:42.045Z,2.97
2019-03-31T02:13:08.604Z,1.40
2019-03-31T02:15:35.097Z,2.27
2019-03-31T02:18:01.564Z,0.40
2019-03-31T02:20:28.010Z,2.20
2019-03-31T02:22:54.494Z,2.00
2019-03-31T02:25:20.954Z,2.83
2019-03-31T02:27:47.549Z,1.40
2019-03-31T02:30:14.309Z,0.67
2019-03-31T02:32:40.888Z,0.77
2019-03-31T02:35:07.498Z,0.20
2019-03-31T02:37:34.064Z,0.93
2019-03-31T02:40:00.998Z,1.73
2019-03-31T02:42:27.930Z,1.60
2019-03-31T02:44:54.748Z,1.70
2019-03-31T02:47:21.617Z,1.80
2019-03-31T02:49:48.429Z,0.30
2019-03-31T02:52:15.483Z,0.43
2019-03-31T02:54:42.456Z,1.13
2019-03-31T02:57:09.395Z,1.33
2019-03-31T02:59:37.415Z,0.93
2019-03-31T03:02:04.367Z,0.40
2019-03-31T03:04:31.374Z,0.60
2019-03-31T03:07:01.437Z,0.20
2019-03-31T03:09:28.331Z,0.83
2019-03-31T03:11:55.474Z,4.10
2019-03-31T03:14:23.433Z,0.27
2019-03-31T03:16:50.359Z,3.03
2019-03-31T03:19:17.318Z,0.40
2019-03-31T03:21:44.254Z,1.33
2019-03-31T03:24:13.028Z,0.60
2019-03-31T03:26:39.941Z,1.53
2019-03-31T03:29:06.553Z,1.13
2019-03-31T03:31:33.169Z,0.47
2019-03-31T03:33:59.706Z,0.67
2019-03-31T03:36:26.292Z,1.40
2019-03-31T03:38:52.892Z,2.13
2019-03-31T03:41:19.455Z,1.80
2019-03-31T03:43:54.928Z,1.17
2019-03-31T03:46:14.557Z,0.87
2019-03-31T03:48:41.036Z,1.77
2019-03-31T03:51:07.522Z,0.83
2019-03-31T03:53:34.158Z,1.03
2019-03-31T03:56:00.739Z,0.57
2019-03-31T03:58:27.196Z,0.53
2019-03-31T04:00:53.909Z,0.77
2019-03-31T04:03:30.139Z,1.33
2019-03-31T04:05:48.748Z,0.53
2019-03-31T04:08:15.310Z,1.07
2019-03-31T04:10:45.526Z,0.73
2019-03-31T04:13:12.118Z,2.57
2019-03-31T04:15:38.972Z,1.80
2019-03-31T04:18:05.520Z,2.20
2019-03-31T04:20:32.085Z,0.87
2019-03-31T04:22:58.557Z,0.17
2019-03-31T04:25:25.148Z,0.77
2019-03-31T04:27:51.716Z,1.17
2019-03-31T04:30:18.298Z,0.30
2019-03-31T04:32:44.748Z,0.30
2019-03-31T04:35:11.347Z,0.20
2019-03-31T04:37:37.956Z,1.00
2019-03-31T04:40:04.934Z,1.13
2019-03-31T04:42:31.488Z,2.53
2019-03-31T04:44:58.060Z,0.10
2019-03-31T04:47:24.521Z,2.67
2019-03-31T04:49:51.015Z,1.37
2019-03-31T04:52:17.491Z,0.10
2019-03-31T04:54:43.972Z,0.30
2019-03-31T04:57:10.542Z,0.87
2019-03-31T04:59:37.021Z,1.90
2019-03-31T05:02:03.495Z,2.20
2019-03-31T05:04:30.073Z,0.20
2019-03-31T05:06:56.621Z,1.00
2019-03-31T05:09:23.108Z,0.23
2019-03-31T05:11:49.668Z,0.67
2019-03-31T05:14:16.287Z,2.07
2019-03-31T05:16:42.873Z,1.37
2019-03-31T05:19:09.476Z,0.50
2019-03-31T05:21:36.108Z,2.85
2019-03-31T05:24:02.658Z,0.53
2019-03-31T05:26:29.300Z,1.75
2019-03-31T05:28:55.944Z,1.77
2019-03-31T05:31:22.463Z,2.22
2019-03-31T05:33:51.791Z,2.45
2019-03-31T05:36:18.390Z,2.10
2019-03-31T05:38:44.872Z,1.40
2019-03-31T05:41:11.498Z,3.15
2019-03-31T05:43:38.066Z,2.55
2019-03-31T05:46:04.552Z,1.67
2019-03-31T05:48:31.027Z,4.05
2019-03-31T05:50:57.512Z,3.67
2019-03-31T05:53:23.990Z,2.80
2019-03-31T05:55:52.147Z,3.02
2019-03-31T05:58:18.635Z,2.67
2019-03-31T06:00:45.629Z,1.77
2019-03-31T06:03:12.294Z,3.40
2019-03-31T06:05:39.179Z,2.92
2019-03-31T06:08:06.754Z,2.42
2019-03-31T06:10:33.569Z,2.87
2019-03-31T06:13:00.245Z,2.15
2019-03-31T06:15:26.861Z,2.00
2019-03-31T06:17:53.461Z,2.83
2019-03-31T06:20:20.050Z,2.55
2019-03-31T06:22:46.617Z,3.30
2019-03-31T06:25:14.696Z,2.05
2019-03-31T06:27:41.287Z,3.22
2019-03-31T06:30:08.100Z,2.92
2019-03-31T06:32:34.785Z,4.25
2019-03-31T06:35:01.398Z,2.90
2019-03-31T06:37:28.078Z,3.50
2019-03-31T06:39:54.819Z,2.85
2019-03-31T06:42:21.430Z,3.40
2019-03-31T06:44:48.146Z,4.10
2019-03-31T06:47:14.761Z,3.98
2019-03-31T06:49:41.432Z,2.80
2019-03-31T06:52:08.050Z,3.08
2019-03-31T06:54:34.641Z,3.80
2019-03-31T06:57:01.246Z,5.58
2019-03-31T06:59:28.025Z,3.27
2019-03-31T07:01:54.634Z,4.65
2019-03-31T07:04:21.211Z,4.08
2019-03-31T07:06:47.703Z,4.00
2019-03-31T07:09:15.389Z,6.05
2019-03-31T07:11:42.033Z,3.65
2019-03-31T07:14:08.719Z,3.67
2019-03-31T07:16:35.675Z,6.30
2019-03-31T07:19:02.528Z,6.30
2019-03-31T07:21:30.502Z,3.87
2019-03-31T07:23:57.279Z,4.25
2019-03-31T07:26:24.063Z,4.40
2019-03-31T07:28:50.633Z,3.37
2019-03-31T07:31:17.132Z,4.97
2019-03-31T07:33:43.704Z,4.17
2019-03-31T07:36:10.200Z,4.47
2019-03-31T07:38:39.179Z,3.42
2019-03-31T07:41:12.675Z,3.85
2019-03-31T07:43:33.513Z,4.47
2019-03-31T07:46:00.100Z,3.98
2019-03-31T07:48:27.933Z,2.45
2019-03-31T07:50:55.492Z,5.55
2019-03-31T07:53:21.968Z,4.33
2019-03-31T07:55:48.451Z,4.70
2019-03-31T07:58:15.065Z,3.10
2019-03-31T08:00:41.617Z,3.95
2019-03-31T08:03:09.910Z,3.60
2019-03-31T08:05:37.770Z,2.90
2019-03-31T08:08:04.795Z,4.05
2019-03-31T08:10:31.582Z,4.10
2019-03-31T08:12:59.216Z,5.95
2019-03-31T08:15:25.813Z,4.37
2019-03-31T08:17:53.129Z,3.45
2019-03-31T08:20:20.914Z,2.47
2019-03-31T08:22:48.035Z,3.77
2019-03-31T08:25:15.001Z,3.42
2019-03-31T08:27:42.253Z,2.95
2019-03-31T08:30:12.181Z,3.75
2019-03-31T08:32:39.825Z,2.42
2019-03-31T08:35:07.260Z,2.35
2019-03-31T08:37:34.326Z,5.17
2019-03-31T08:40:01.245Z,3.98
2019-03-31T08:42:29.328Z,1.98
2019-03-31T08:44:56.258Z,4.67
2019-03-31T08:47:23.341Z,2.77
2019-03-31T08:49:50.068Z,2.37
2019-03-31T08:52:16.983Z,2.98
2019-03-31T08:54:43.618Z,2.33
2019-03-31T08:57:10.255Z,2.70
2019-03-31T08:59:36.797Z,0.82
2019-03-31T09:02:21.978Z,3.47
2019-03-31T09:04:48.684Z,1.27
2019-03-31T09:07:15.262Z,3.22
2019-03-31T09:09:41.974Z,4.22
2019-03-31T09:12:08.563Z,2.27
2019-03-31T09:14:35.382Z,3.27
2019-03-31T09:17:02.167Z,1.20
2019-03-31T09:19:28.740Z,2.08
2019-03-31T09:21:55.225Z,2.98
2019-03-31T09:24:21.937Z,2.62
2019-03-31T09:26:48.730Z,1.42
2019-03-31T09:29:15.337Z,3.08
2019-03-31T09:31:41.955Z,2.10
2019-03-31T09:34:08.544Z,2.12
2019-03-31T09:36:35.118Z,3.27
2019-03-31T09:39:03.720Z,2.30
2019-03-31T09:41:30.565Z,3.55
2019-03-31T09:43:57.176Z,2.12
2019-03-31T09:46:23.735Z,3.10
2019-03-31T09:48:50.736Z,1.75
2019-03-31T09:51:17.566Z,1.27
2019-03-31T09:53:44.182Z,1.30
2019-03-31T09:56:10.987Z,2.75
2019-03-31T09:58:38.064Z,0.85
2019-03-31T10:01:07.916Z,1.77
2019-03-31T10:03:33.036Z,1.52
2019-03-31T10:06:10.065Z,3.12
2019-03-31T10:08:28.012Z,2.10
2019-03-31T10:10:54.950Z,1.98
2019-03-31T10:13:22.500Z,2.80
2019-03-31T10:15:50.605Z,2.30
2019-03-31T10:18:18.260Z,1.90
2019-03-31T10:20:45.081Z,2.10
2019-03-31T10:23:12.105Z,1.15
2019-03-31T10:25:39.463Z,2.37
2019-03-31T10:28:06.524Z,1.87
2019-03-31T10:30:35.333Z,1.57
2019-03-31T10:33:03.362Z,1.45
2019-03-31T10:35:32.136Z,0.70
2019-03-31T10:37:59.321Z,1.15
2019-03-31T10:40:26.545Z,2.25
2019-03-31T10:42:53.901Z,1.82
2019-03-31T10:45:21.655Z,2.35
2019-03-31T10:47:48.549Z,1.42
2019-03-31T10:50:15.637Z,1.15
2019-03-31T10:52:42.688Z,2.98
2019-03-31T10:55:09.655Z,1.72
2019-03-31T10:57:36.998Z,0.72
2019-03-31T11:00:08.083Z,1.60
2019-03-31T11:02:35.074Z,0.80
2019-03-31T11:05:01.868Z,1.65
2019-03-31T11:07:29.176Z,1.70
2019-03-31T11:09:57.061Z,1.00
2019-03-31T11:12:24.309Z,1.10
2019-03-31T11:14:51.783Z,1.50
2019-03-31T11:17:18.907Z,2.77
2019-03-31T11:19:45.891Z,0.90
2019-03-31T11:22:14.837Z,1.50
2019-03-31T11:24:41.667Z,0.70
2019-03-31T11:27:08.348Z,1.30
2019-03-31T11:29:35.439Z,1.05
2019-03-31T11:32:02.262Z,1.00
2019-03-31T11:34:28.952Z,0.25
2019-03-31T11:36:55.670Z,0.60
2019-03-31T11:39:25.439Z,0.98
2019-03-31T11:41:53.327Z,0.98
2019-03-31T11:44:21.330Z,1.00
2019-03-31T11:46:48.237Z,0.85
2019-03-31T11:49:15.152Z,0.40
2019-03-31T11:51:41.739Z,0.37
2019-03-31T11:54:08.264Z,1.20
2019-03-31T11:56:35.502Z,0.50
2019-03-31T11:59:02.140Z,0.62
2019-03-31T12:01:28.854Z,0.98
2019-03-31T12:03:55.823Z,1.85
2019-03-31T12:06:22.455Z,0.82
2019-03-31T12:08:48.983Z,0.53
2019-03-31T12:11:16.152Z,0.33
2019-03-31T12:13:42.712Z,1.30
2019-03-31T12:16:09.223Z,0.75
2019-03-31T12:18:36.249Z,0.35
2019-03-31T12:21:04.988Z,0.40
2019-03-31T12:23:33.234Z,0.30
2019-03-31T12:25:59.950Z,0.20
2019-03-31T12:28:26.497Z,0.25
2019-03-31T12:31:06.748Z,0.13
2019-03-31T12:33:33.348Z,0.82
2019-03-31T12:35:59.934Z,0.13
2019-03-31T12:38:28.242Z,0.75
2019-03-31T12:40:55.241Z,0.70
2019-03-31T12:43:22.164Z,0.60
2019-03-31T12:45:49.119Z,0.98
2019-03-31T12:48:15.998Z,0.10
2019-03-31T12:50:43.341Z,0.78
2019-03-31T12:53:30.054Z,0.10
2019-03-31T12:56:00.430Z,0.20
2019-03-31T12:58:25.431Z,1.07
2019-03-31T13:00:52.297Z,0.70
2019-03-31T13:03:19.150Z,0.20
2019-03-31T13:05:46.639Z,1.17
2019-03-31T13:08:13.921Z,0.80
2019-03-31T13:10:41.687Z,0.90
2019-03-31T13:13:08.642Z,0.20
2019-03-31T13:15:37.523Z,0.37
2019-03-31T13:18:04.114Z,0.50
2019-03-31T13:20:30.743Z,0.10
2019-03-31T13:22:57.533Z,0.55
2019-03-31T13:25:24.269Z,1.15
2019-03-31T13:27:51.482Z,1.35
2019-03-31T13:30:21.652Z,0.10
2019-03-31T13:32:48.041Z,0.47
2019-03-31T13:35:15.656Z,0.00
2019-03-31T13:37:42.745Z,0.62
2019-03-31T13:40:09.669Z,0.03
2019-03-31T13:42:36.388Z,1.37
2019-03-31T13:45:05.698Z,0.40
2019-03-31T13:47:32.576Z,0.90
2019-03-31T13:49:59.384Z,0.98
2019-03-31T13:52:26.020Z,0.57
2019-03-31T13:54:53.011Z,0.75
2019-03-31T13:57:19.946Z,0.28
2019-03-31T13:59:46.898Z,0.40
2019-03-31T14:02:13.587Z,0.65
2019-03-31T14:04:51.442Z,1.10
2019-03-31T14:07:09.927Z,0.35
2019-03-31T14:09:36.991Z,1.37
2019-03-31T14:12:03.659Z,0.65
2019-03-31T14:14:30.308Z,0.75
2019-03-31T14:16:56.860Z,0.28
2019-03-31T14:19:23.775Z,0.00
2019-03-31T14:21:51.370Z,0.25
2019-03-31T14:24:17.933Z,0.30
2019-03-31T14:26:47.618Z,0.40
2019-03-31T14:29:13.283Z,0.30
2019-03-31T14:31:39.980Z,1.05
2019-03-31T14:34:06.555Z,1.10
2019-03-31T14:36:33.822Z,0.75
2019-03-31T14:39:01.182Z,0.37
2019-03-31T14:41:28.449Z,0.23
2019-03-31T14:43:56.386Z,0.98
2019-03-31T14:46:23.032Z,0.55
2019-03-31T14:48:49.909Z,0.65
2019-03-31T14:51:16.616Z,0.70
2019-03-31T14:53:45.641Z,0.00
2019-03-31T14:56:12.407Z,0.30
2019-03-31T14:58:39.468Z,0.10
2019-03-31T15:01:06.239Z,0.37
2019-03-31T15:03:33.058Z,0.80
2019-03-31T15:06:00.046Z,0.70
2019-03-31T15:08:26.961Z,0.60
2019-03-31T15:10:54.041Z,0.40
2019-03-31T15:13:20.928Z,0.15
2019-03-31T15:15:47.563Z,0.68
2019-03-31T15:18:14.223Z,0.30
2019-03-31T15:20:42.734Z,1.55
2019-03-31T15:23:09.314Z,1.15
2019-03-31T15:25:36.508Z,0.40
2019-03-31T15:28:03.504Z,0.10
2019-03-31T15:30:30.422Z,0.33
2019-03-31T15:32:57.316Z,1.17
2019-03-31T15:35:23.992Z,1.00
2019-03-31T15:37:50.837Z,1.15
2019-03-31T15:40:17.917Z,1.35
2019-03-31T15:42:44.985Z,0.88
2019-03-31T15:45:11.903Z,0.40
2019-03-31T15:47:38.643Z,0.40
2019-03-31T15:50:06.325Z,0.65
2019-03-31T15:52:32.966Z,0.42
2019-03-31T15:55:00.618Z,0.20
2019-03-31T15:57:27.449Z,0.50
2019-03-31T15:59:54.398Z,1.15
2019-03-31T16:02:23.165Z,0.37
2019-03-31T16:04:49.897Z,0.75
2019-03-31T16:07:17.182Z,0.40
2019-03-31T16:09:44.071Z,0.45
2019-03-31T16:12:10.970Z,0.40
2019-03-31T16:14:38.102Z,0.55
2019-03-31T16:17:04.979Z,0.23
2019-03-31T16:19:31.872Z,1.05
2019-03-31T16:21:58.557Z,0.85
2019-03-31T16:24:43.688Z,0.30
2019-03-31T16:27:10.714Z,3.08
2019-03-31T16:29:37.979Z,0.30
2019-03-31T16:32:04.507Z,0.28
2019-03-31T16:34:32.598Z,0.60
2019-03-31T16:36:59.523Z,1.12
2019-03-31T16:39:37.013Z,0.75
2019-03-31T16:41:56.219Z,1.10
2019-03-31T16:44:23.320Z,0.85
2019-03-31T16:46:50.479Z,0.37
2019-03-31T16:49:18.029Z,1.32
2019-03-31T16:51:47.979Z,0.62
2019-03-31T16:54:15.810Z,1.77
2019-03-31T16:56:43.256Z,2.15
2019-03-31T16:59:11.265Z,0.82
2019-03-31T17:01:38.252Z,2.55
2019-03-31T17:04:05.120Z,3.45
2019-03-31T17:06:32.484Z,0.65
2019-03-31T17:08:59.532Z,0.53
2019-03-31T17:11:26.965Z,1.92
2019-03-31T17:13:54.523Z,1.02
2019-03-31T17:16:21.244Z,1.67
2019-03-31T17:18:48.923Z,0.30
2019-03-31T17:21:16.167Z,0.95
2019-03-31T17:23:43.341Z,0.60
2019-03-31T17:26:10.399Z,0.30
2019-03-31T17:28:37.390Z,0.60
2019-03-31T17:31:04.147Z,1.77
2019-03-31T17:33:31.369Z,2.00
2019-03-31T17:35:58.769Z,0.88
2019-03-31T17:38:26.201Z,0.68
2019-03-31T17:40:53.380Z,0.42
2019-03-31T17:43:20.497Z,0.35
2019-03-31T17:45:47.648Z,1.22
2019-03-31T17:48:14.802Z,0.72
2019-03-31T17:50:42.047Z,0.70
2019-03-31T17:53:09.654Z,1.32
2019-03-31T17:55:37.162Z,0.75
2019-03-31T17:58:04.635Z,0.65
2019-03-31T18:00:31.661Z,0.45
2019-03-31T18:02:58.842Z,0.68
2019-03-31T18:05:26.071Z,1.00
2019-03-31T18:07:53.008Z,1.25
2019-03-31T18:10:21.574Z,0.25
2019-03-31T18:12:48.937Z,1.02
2019-03-31T18:15:16.126Z,0.10
2019-03-31T18:17:43.649Z,0.75
2019-03-31T18:20:10.722Z,0.75
2019-03-31T18:22:38.570Z,0.80
2019-03-31T18:25:06.518Z,1.20
2019-03-31T18:27:33.628Z,0.72
2019-03-31T18:30:00.918Z,0.10
2019-03-31T18:32:27.966Z,0.10
2019-03-31T18:34:55.633Z,0.98
2019-03-31T18:37:24.630Z,0.72
2019-03-31T18:39:51.876Z,0.62
2019-03-31T18:42:18.929Z,0.17
2019-03-31T18:44:46.173Z,1.32
2019-03-31T18:47:13.522Z,0.23
2019-03-31T18:49:40.540Z,0.37
2019-03-31T18:52:08.478Z,0.42
2019-03-31T18:54:53.214Z,0.55
2019-03-31T18:57:22.396Z,0.05
2019-03-31T18:59:51.712Z,0.08
2019-03-31T19:02:26.673Z,0.47
2019-03-31T19:05:08.532Z,1.22
2019-03-31T19:07:40.084Z,0.68
2019-03-31T19:10:25.190Z,0.00
2019-03-31T19:12:57.000Z,0.62
2019-03-31T19:15:40.643Z,0.42
2019-03-31T19:18:15.658Z,0.85
2019-03-31T19:20:44.645Z,0.20
2019-03-31T19:23:16.300Z,0.15
2019-03-31T19:25:51.765Z,0.00
2019-03-31T19:28:38.962Z,0.35
2019-03-31T19:31:07.730Z,0.20
2019-03-31T19:33:53.041Z,0.08
2019-03-31T19:36:31.029Z,0.88
2019-03-31T19:39:05.741Z,0.10
2019-03-31T19:41:34.988Z,0.28
2019-03-31T19:44:09.951Z,0.10
2019-03-31T19:46:56.680Z,0.40
2019-03-31T19:49:25.411Z,0.23
2019-03-31T19:52:00.537Z,0.10
2019-03-31T19:54:38.765Z,0.47
2019-03-31T19:57:24.872Z,1.00
2019-03-31T20:00:06.084Z,0.00
2019-03-31T20:02:41.258Z,0.10
2019-03-31T20:05:13.304Z,0.25
2019-03-31T20:07:59.764Z,0.10
2019-03-31T20:10:44.242Z,0.00
2019-03-31T20:13:13.338Z,0.62
2019-03-31T20:15:42.757Z,0.40
2019-03-31T20:18:30.711Z,0.65
2019-03-31T20:21:10.743Z,0.98
2019-03-31T20:23:39.718Z,0.00
2019-03-31T20:26:15.219Z,0.37
2019-03-31T20:29:02.782Z,0.88
2019-03-31T20:31:34.952Z,0.00
2019-03-31T20:34:04.228Z,1.87
2019-03-31T20:36:45.423Z,0.08
2019-03-31T20:39:18.695Z,0.00
2019-03-31T20:41:53.220Z,0.25
2019-03-31T20:44:20.878Z,0.68
2019-03-31T20:46:48.339Z,0.40
2019-03-31T20:49:15.678Z,0.00
2019-03-31T20:51:42.932Z,0.55
2019-03-31T20:54:11.362Z,0.23
2019-03-31T20:56:40.420Z,0.10
2019-03-31T20:59:07.558Z,0.10
2019-03-31T21:01:35.422Z,0.10
2019-03-31T21:04:02.673Z,0.00
2019-03-31T21:06:33.741Z,0.15
2019-03-31T21:09:01.064Z,0.37
2019-03-31T21:11:28.734Z,0.10
2019-03-31T21:13:59.915Z,0.60
2019-03-31T21:16:27.533Z,0.10
2019-03-31T21:18:54.980Z,0.00
2019-03-31T21:21:22.020Z,0.35
2019-03-31T21:23:49.683Z,0.28
2019-03-31T21:26:17.375Z,0.10
2019-03-31T21:28:44.832Z,0.30
2019-03-31T21:31:12.401Z,0.20
2019-03-31T21:33:39.606Z,0.10
2019-03-31T21:36:06.981Z,0.28
2019-03-31T21:38:34.665Z,0.10
2019-03-31T21:41:02.202Z,0.20
2019-03-31T21:43:29.737Z,0.42
2019-03-31T21:45:58.458Z,0.00
2019-03-31T21:48:25.689Z,0.00
2019-03-31T21:50:53.369Z,0.05
2019-03-31T21:53:21.185Z,0.70
2019-03-31T21:55:48.592Z,0.72
2019-03-31T21:58:15.998Z,0.17
2019-03-31T22:03:18.414Z,1.85
2019-03-31T22:05:45.334Z,0.95
2019-03-31T22:08:12.792Z,0.00
2019-03-31T22:10:40.508Z,0.75
2019-03-31T22:13:09.019Z,0.10
2019-03-31T22:15:37.028Z,0.37
2019-03-31T22:18:06.104Z,1.12
2019-03-31T22:20:32.932Z,0.05
2019-03-31T22:22:59.729Z,0.00
2019-03-31T22:25:26.691Z,0.05
2019-03-31T22:27:53.248Z,0.20
2019-03-31T22:30:20.288Z,0.00
2019-03-31T22:32:47.693Z,1.17
2019-03-31T22:35:14.794Z,0.00
2019-03-31T22:37:43.848Z,0.17
2019-03-31T22:40:11.142Z,0.37
2019-03-31T22:42:38.185Z,0.45
2019-03-31T22:45:05.017Z,0.00
2019-03-31T22:47:34.167Z,0.53
2019-03-31T22:50:02.253Z,0.00
2019-03-31T22:52:30.148Z,0.00
2019-03-31T22:54:58.021Z,0.00
2019-03-31T22:57:24.979Z,0.00
2019-03-31T22:59:52.305Z,0.08
2019-03-31T23:02:18.852Z,0.00
2019-03-31T23:04:45.455Z,0.05
2019-03-31T23:07:13.420Z,0.10
2019-03-31T23:09:40.016Z,0.00
2019-03-31T23:12:06.582Z,0.00
2019-03-31T23:14:33.095Z,0.00
2019-03-31T23:16:59.647Z,0.00
2019-03-31T23:19:26.236Z,0.03
2019-03-31T23:21:55.184Z,0.00
2019-03-31T23:24:21.720Z,0.20
2019-03-31T23:26:48.189Z,0.00
2019-03-31T23:29:14.672Z,0.00
2019-03-31T23:31:41.474Z,0.08
2019-03-31T23:34:10.537Z,0.00
2019-03-31T23:36:37.898Z,0.00
2019-03-31T23:39:05.861Z,0.00
2019-03-31T23:41:33.118Z,0.00
2019-03-31T23:44:00.364Z,0.00
2019-03-31T23:46:27.553Z,0.00
2019-03-31T23:48:54.124Z,0.00
2019-03-31T23:51:21.196Z,0.00
2019-03-31T23:53:48.246Z,0.00
2019-03-31T23:56:15.391Z,0.00
2019-03-31T23:58:42.123Z,0.00
